sensor_id;sensor_type;location;lat;lon;timestamp;P1;durP1;ratioP1;P2;durP2;ratioP2
66633;SDS011;53546;52.184;5.596;2023-02-24T00:01:58;4.35;;;2.10;;
66633;SDS011;53546;52.184;5.596;2023-02-24T00:04:30;7.18;;;2.53;;
66633;SDS011;53546;52.184;5.596;2023-02-24T00:06:57;3.40;;;2.17;;
66633;SDS011;53546;52.184;5.596;2023-02-24T00:09:24;3.20;;;2.25;;
66633;SDS011;53546;52.184;5.596;2023-02-24T00:11:55;4.45;;;2.47;;
66633;SDS011;53546;52.184;5.596;2023-02-24T00:14:26;4.10;;;2.22;;
66633;SDS011;53546;52.184;5.596;2023-02-24T00:16:53;4.72;;;2.15;;
66633;SDS011;53546;52.184;5.596;2023-02-24T00:19:20;6.20;;;2.60;;
66633;SDS011;53546;52.184;5.596;2023-02-24T00:21:47;5.03;;;2.33;;
66633;SDS011;53546;52.184;5.596;2023-02-24T00:24:13;5.18;;;2.35;;
66633;SDS011;53546;52.184;5.596;2023-02-24T00:26:39;4.32;;;2.38;;
66633;SDS011;53546;52.184;5.596;2023-02-24T00:29:06;5.28;;;2.58;;
66633;SDS011;53546;52.184;5.596;2023-02-24T00:31:33;3.70;;;1.90;;
66633;SDS011;53546;52.184;5.596;2023-02-24T00:34:02;4.05;;;2.15;;
66633;SDS011;53546;52.184;5.596;2023-02-24T00:36:28;7.15;;;2.30;;
66633;SDS011;53546;52.184;5.596;2023-02-24T00:38:58;4.45;;;2.28;;
66633;SDS011;53546;52.184;5.596;2023-02-24T00:41:26;4.38;;;2.20;;
66633;SDS011;53546;52.184;5.596;2023-02-24T00:43:53;3.35;;;2.10;;
66633;SDS011;53546;52.184;5.596;2023-02-24T00:46:29;4.97;;;2.28;;
66633;SDS011;53546;52.184;5.596;2023-02-24T00:48:59;3.70;;;2.03;;
66633;SDS011;53546;52.184;5.596;2023-02-24T00:51:29;4.55;;;2.20;;
66633;SDS011;53546;52.184;5.596;2023-02-24T00:53:57;4.10;;;2.10;;
66633;SDS011;53546;52.184;5.596;2023-02-24T00:56:23;8.38;;;2.20;;
66633;SDS011;53546;52.184;5.596;2023-02-24T00:58:51;4.90;;;2.08;;
66633;SDS011;53546;52.184;5.596;2023-02-24T01:01:18;3.92;;;1.83;;
66633;SDS011;53546;52.184;5.596;2023-02-24T01:03:45;4.13;;;2.00;;
66633;SDS011;53546;52.184;5.596;2023-02-24T01:06:15;2.10;;;1.90;;
66633;SDS011;53546;52.184;5.596;2023-02-24T01:08:44;3.10;;;1.85;;
66633;SDS011;53546;52.184;5.596;2023-02-24T01:11:15;3.80;;;2.00;;
66633;SDS011;53546;52.184;5.596;2023-02-24T01:14:04;3.08;;;1.65;;
66633;SDS011;53546;52.184;5.596;2023-02-24T01:16:31;3.25;;;1.80;;
66633;SDS011;53546;52.184;5.596;2023-02-24T01:18:58;3.28;;;1.70;;
66633;SDS011;53546;52.184;5.596;2023-02-24T01:21:23;4.20;;;1.95;;
66633;SDS011;53546;52.184;5.596;2023-02-24T01:23:49;5.50;;;2.30;;
66633;SDS011;53546;52.184;5.596;2023-02-24T01:26:15;4.25;;;1.80;;
66633;SDS011;53546;52.184;5.596;2023-02-24T01:28:42;2.92;;;2.15;;
66633;SDS011;53546;52.184;5.596;2023-02-24T01:31:09;5.07;;;1.83;;
66633;SDS011;53546;52.184;5.596;2023-02-24T01:33:35;2.63;;;1.58;;
66633;SDS011;53546;52.184;5.596;2023-02-24T01:36:11;3.47;;;1.92;;
66633;SDS011;53546;52.184;5.596;2023-02-24T01:38:39;3.35;;;1.88;;
66633;SDS011;53546;52.184;5.596;2023-02-24T01:41:07;4.38;;;1.98;;
66633;SDS011;53546;52.184;5.596;2023-02-24T01:43:53;3.22;;;1.60;;
66633;SDS011;53546;52.184;5.596;2023-02-24T01:46:27;2.85;;;1.70;;
66633;SDS011;53546;52.184;5.596;2023-02-24T01:48:56;3.92;;;1.73;;
66633;SDS011;53546;52.184;5.596;2023-02-24T01:51:26;3.08;;;1.65;;
66633;SDS011;53546;52.184;5.596;2023-02-24T01:53:54;3.20;;;1.50;;
66633;SDS011;53546;52.184;5.596;2023-02-24T01:56:19;2.78;;;1.67;;
66633;SDS011;53546;52.184;5.596;2023-02-24T01:58:45;4.57;;;1.70;;
66633;SDS011;53546;52.184;5.596;2023-02-24T02:01:11;2.60;;;1.85;;
66633;SDS011;53546;52.184;5.596;2023-02-24T02:03:40;3.30;;;1.70;;
66633;SDS011;53546;52.184;5.596;2023-02-24T02:06:08;5.05;;;1.40;;
66633;SDS011;53546;52.184;5.596;2023-02-24T02:08:35;4.22;;;1.40;;
66633;SDS011;53546;52.184;5.596;2023-02-24T02:11:05;3.83;;;1.60;;
66633;SDS011;53546;52.184;5.596;2023-02-24T02:13:32;2.90;;;1.67;;
66633;SDS011;53546;52.184;5.596;2023-02-24T02:27:29;3.75;;;1.70;;
66633;SDS011;53546;52.184;5.596;2023-02-24T02:45:23;3.05;;;1.63;;
66633;SDS011;53546;52.184;5.596;2023-02-24T02:48:11;3.28;;;1.90;;
66633;SDS011;53546;52.184;5.596;2023-02-24T02:50:45;3.92;;;1.45;;
66633;SDS011;53546;52.184;5.596;2023-02-24T02:53:33;6.18;;;1.60;;
66633;SDS011;53546;52.184;5.596;2023-02-24T02:56:11;4.05;;;1.83;;
66633;SDS011;53546;52.184;5.596;2023-02-24T02:58:41;3.00;;;1.45;;
66633;SDS011;53546;52.184;5.596;2023-02-24T03:01:10;3.65;;;1.48;;
66633;SDS011;53546;52.184;5.596;2023-02-24T03:03:40;3.50;;;1.65;;
66633;SDS011;53546;52.184;5.596;2023-02-24T03:06:20;2.45;;;1.45;;
66633;SDS011;53546;52.184;5.596;2023-02-24T03:11:24;3.00;;;1.38;;
66633;SDS011;53546;52.184;5.596;2023-02-24T03:13:51;4.07;;;1.80;;
66633;SDS011;53546;52.184;5.596;2023-02-24T03:16:18;3.47;;;1.40;;
66633;SDS011;53546;52.184;5.596;2023-02-24T03:18:46;3.47;;;1.58;;
66633;SDS011;53546;52.184;5.596;2023-02-24T03:21:32;4.30;;;1.60;;
66633;SDS011;53546;52.184;5.596;2023-02-24T03:24:01;4.00;;;1.55;;
66633;SDS011;53546;52.184;5.596;2023-02-24T03:26:46;5.32;;;1.98;;
66633;SDS011;53546;52.184;5.596;2023-02-24T03:29:26;3.28;;;1.38;;
66633;SDS011;53546;52.184;5.596;2023-02-24T03:35:16;4.20;;;1.40;;
66633;SDS011;53546;52.184;5.596;2023-02-24T03:37:26;2.58;;;1.48;;
66633;SDS011;53546;52.184;5.596;2023-02-24T03:39:55;4.20;;;1.85;;
66633;SDS011;53546;52.184;5.596;2023-02-24T03:42:21;3.50;;;1.55;;
66633;SDS011;53546;52.184;5.596;2023-02-24T03:44:47;3.25;;;2.00;;
66633;SDS011;53546;52.184;5.596;2023-02-24T03:47:14;2.95;;;1.30;;
66633;SDS011;53546;52.184;5.596;2023-02-24T03:49:41;3.90;;;1.70;;
66633;SDS011;53546;52.184;5.596;2023-02-24T03:55:10;3.70;;;1.45;;
66633;SDS011;53546;52.184;5.596;2023-02-24T04:03:16;3.97;;;1.48;;
66633;SDS011;53546;52.184;5.596;2023-02-24T04:06:11;2.70;;;1.40;;
66633;SDS011;53546;52.184;5.596;2023-02-24T04:11:26;3.10;;;1.60;;
66633;SDS011;53546;52.184;5.596;2023-02-24T04:13:59;4.35;;;1.67;;
66633;SDS011;53546;52.184;5.596;2023-02-24T04:16:33;3.70;;;1.50;;
66633;SDS011;53546;52.184;5.596;2023-02-24T04:19:08;4.47;;;1.60;;
66633;SDS011;53546;52.184;5.596;2023-02-24T04:21:38;4.15;;;1.30;;
66633;SDS011;53546;52.184;5.596;2023-02-24T04:24:04;4.60;;;1.67;;
66633;SDS011;53546;52.184;5.596;2023-02-24T04:26:35;3.45;;;1.65;;
66633;SDS011;53546;52.184;5.596;2023-02-24T04:29:04;4.60;;;1.20;;
66633;SDS011;53546;52.184;5.596;2023-02-24T04:31:30;3.17;;;1.50;;
66633;SDS011;53546;52.184;5.596;2023-02-24T04:33:57;2.83;;;1.33;;
66633;SDS011;53546;52.184;5.596;2023-02-24T04:36:24;3.65;;;1.88;;
66633;SDS011;53546;52.184;5.596;2023-02-24T04:38:49;2.95;;;1.20;;
66633;SDS011;53546;52.184;5.596;2023-02-24T04:41:16;2.58;;;1.40;;
66633;SDS011;53546;52.184;5.596;2023-02-24T04:43:45;2.47;;;1.25;;
66633;SDS011;53546;52.184;5.596;2023-02-24T04:46:11;4.70;;;1.65;;
66633;SDS011;53546;52.184;5.596;2023-02-24T04:48:37;2.17;;;1.27;;
66633;SDS011;53546;52.184;5.596;2023-02-24T04:51:03;3.50;;;1.58;;
66633;SDS011;53546;52.184;5.596;2023-02-24T04:53:30;2.67;;;1.33;;
66633;SDS011;53546;52.184;5.596;2023-02-24T04:55:56;5.60;;;1.30;;
66633;SDS011;53546;52.184;5.596;2023-02-24T04:58:23;2.90;;;1.48;;
66633;SDS011;53546;52.184;5.596;2023-02-24T05:00:52;1.60;;;1.13;;
66633;SDS011;53546;52.184;5.596;2023-02-24T05:03:18;2.15;;;1.27;;
66633;SDS011;53546;52.184;5.596;2023-02-24T05:05:48;2.80;;;1.25;;
66633;SDS011;53546;52.184;5.596;2023-02-24T05:08:16;5.05;;;1.30;;
66633;SDS011;53546;52.184;5.596;2023-02-24T05:10:42;3.78;;;1.42;;
66633;SDS011;53546;52.184;5.596;2023-02-24T05:13:11;3.83;;;1.60;;
66633;SDS011;53546;52.184;5.596;2023-02-24T05:15:39;3.80;;;1.92;;
66633;SDS011;53546;52.184;5.596;2023-02-24T05:18:06;2.55;;;1.30;;
66633;SDS011;53546;52.184;5.596;2023-02-24T05:20:52;3.15;;;1.40;;
66633;SDS011;53546;52.184;5.596;2023-02-24T05:26:04;2.42;;;1.40;;
66633;SDS011;53546;52.184;5.596;2023-02-24T05:28:33;5.70;;;1.40;;
66633;SDS011;53546;52.184;5.596;2023-02-24T05:31:06;3.85;;;1.60;;
66633;SDS011;53546;52.184;5.596;2023-02-24T05:33:43;2.65;;;1.05;;
66633;SDS011;53546;52.184;5.596;2023-02-24T05:36:13;4.22;;;1.30;;
66633;SDS011;53546;52.184;5.596;2023-02-24T05:38:41;3.40;;;1.60;;
66633;SDS011;53546;52.184;5.596;2023-02-24T05:41:19;4.15;;;1.52;;
66633;SDS011;53546;52.184;5.596;2023-02-24T05:43:47;4.88;;;1.30;;
66633;SDS011;53546;52.184;5.596;2023-02-24T05:46:22;4.40;;;1.52;;
66633;SDS011;53546;52.184;5.596;2023-02-24T05:48:52;5.10;;;1.80;;
66633;SDS011;53546;52.184;5.596;2023-02-24T05:51:21;3.70;;;1.50;;
66633;SDS011;53546;52.184;5.596;2023-02-24T05:53:48;3.55;;;1.10;;
66633;SDS011;53546;52.184;5.596;2023-02-24T05:56:19;2.83;;;1.30;;
66633;SDS011;53546;52.184;5.596;2023-02-24T05:58:47;1.80;;;1.00;;
66633;SDS011;53546;52.184;5.596;2023-02-24T06:01:14;3.45;;;1.33;;
66633;SDS011;53546;52.184;5.596;2023-02-24T06:03:43;3.08;;;1.35;;
66633;SDS011;53546;52.184;5.596;2023-02-24T06:06:16;2.83;;;1.20;;
66633;SDS011;53546;52.184;5.596;2023-02-24T06:08:42;4.78;;;1.20;;
66633;SDS011;53546;52.184;5.596;2023-02-24T06:11:19;2.75;;;1.20;;
66633;SDS011;53546;52.184;5.596;2023-02-24T06:13:45;2.38;;;1.10;;
66633;SDS011;53546;52.184;5.596;2023-02-24T06:16:14;5.35;;;1.40;;
66633;SDS011;53546;52.184;5.596;2023-02-24T06:18:41;2.80;;;1.20;;
66633;SDS011;53546;52.184;5.596;2023-02-24T06:21:08;2.45;;;1.20;;
66633;SDS011;53546;52.184;5.596;2023-02-24T06:23:36;2.80;;;1.30;;
66633;SDS011;53546;52.184;5.596;2023-02-24T06:26:03;2.85;;;1.65;;
66633;SDS011;53546;52.184;5.596;2023-02-24T06:28:29;3.45;;;1.30;;
66633;SDS011;53546;52.184;5.596;2023-02-24T06:30:55;2.65;;;1.40;;
66633;SDS011;53546;52.184;5.596;2023-02-24T06:33:21;2.17;;;1.20;;
66633;SDS011;53546;52.184;5.596;2023-02-24T06:35:47;2.53;;;1.27;;
66633;SDS011;53546;52.184;5.596;2023-02-24T06:38:12;1.75;;;1.00;;
66633;SDS011;53546;52.184;5.596;2023-02-24T06:40:39;3.33;;;1.10;;
66633;SDS011;53546;52.184;5.596;2023-02-24T06:43:07;4.72;;;1.40;;
66633;SDS011;53546;52.184;5.596;2023-02-24T06:45:33;2.17;;;1.20;;
66633;SDS011;53546;52.184;5.596;2023-02-24T06:47:59;2.88;;;1.15;;
66633;SDS011;53546;52.184;5.596;2023-02-24T06:50:25;3.13;;;1.13;;
66633;SDS011;53546;52.184;5.596;2023-02-24T06:52:53;2.47;;;1.15;;
66633;SDS011;53546;52.184;5.596;2023-02-24T06:57:53;2.20;;;1.20;;
66633;SDS011;53546;52.184;5.596;2023-02-24T07:00:27;5.15;;;1.52;;
66633;SDS011;53546;52.184;5.596;2023-02-24T07:03:15;2.17;;;1.20;;
66633;SDS011;53546;52.184;5.596;2023-02-24T07:05:45;5.35;;;1.00;;
66633;SDS011;53546;52.184;5.596;2023-02-24T07:08:19;2.08;;;1.05;;
66633;SDS011;53546;52.184;5.596;2023-02-24T07:10:56;2.95;;;1.30;;
66633;SDS011;53546;52.184;5.596;2023-02-24T07:13:24;1.73;;;1.10;;
66633;SDS011;53546;52.184;5.596;2023-02-24T07:15:50;2.10;;;1.30;;
66633;SDS011;53546;52.184;5.596;2023-02-24T07:18:16;2.50;;;1.17;;
66633;SDS011;53546;52.184;5.596;2023-02-24T07:20:42;2.28;;;1.02;;
66633;SDS011;53546;52.184;5.596;2023-02-24T07:23:10;1.45;;;1.10;;
66633;SDS011;53546;52.184;5.596;2023-02-24T07:25:39;3.17;;;1.17;;
66633;SDS011;53546;52.184;5.596;2023-02-24T07:28:07;3.28;;;1.50;;
66633;SDS011;53546;52.184;5.596;2023-02-24T07:30:33;2.13;;;1.20;;
66633;SDS011;53546;52.184;5.596;2023-02-24T07:32:58;1.95;;;1.10;;
66633;SDS011;53546;52.184;5.596;2023-02-24T07:35:24;2.42;;;1.10;;
66633;SDS011;53546;52.184;5.596;2023-02-24T07:37:50;3.70;;;1.70;;
66633;SDS011;53546;52.184;5.596;2023-02-24T07:40:16;1.30;;;1.10;;
66633;SDS011;53546;52.184;5.596;2023-02-24T07:42:42;2.78;;;1.17;;
66633;SDS011;53546;52.184;5.596;2023-02-24T07:45:08;4.22;;;1.40;;
66633;SDS011;53546;52.184;5.596;2023-02-24T07:47:34;6.55;;;1.42;;
66633;SDS011;53546;52.184;5.596;2023-02-24T07:50:00;5.63;;;1.15;;
66633;SDS011;53546;52.184;5.596;2023-02-24T07:52:34;3.42;;;1.00;;
66633;SDS011;53546;52.184;5.596;2023-02-24T07:55:01;4.03;;;1.23;;
66633;SDS011;53546;52.184;5.596;2023-02-24T07:57:27;2.97;;;1.30;;
66633;SDS011;53546;52.184;5.596;2023-02-24T07:59:52;1.55;;;0.85;;
66633;SDS011;53546;52.184;5.596;2023-02-24T08:02:18;2.15;;;1.00;;
66633;SDS011;53546;52.184;5.596;2023-02-24T08:04:43;3.20;;;1.10;;
66633;SDS011;53546;52.184;5.596;2023-02-24T08:07:14;3.05;;;1.20;;
66633;SDS011;53546;52.184;5.596;2023-02-24T08:09:40;1.85;;;1.13;;
66633;SDS011;53546;52.184;5.596;2023-02-24T08:12:09;3.25;;;1.00;;
66633;SDS011;53546;52.184;5.596;2023-02-24T08:14:35;6.68;;;1.27;;
66633;SDS011;53546;52.184;5.596;2023-02-24T08:17:08;3.08;;;1.10;;
66633;SDS011;53546;52.184;5.596;2023-02-24T08:19:35;4.07;;;1.42;;
66633;SDS011;53546;52.184;5.596;2023-02-24T08:22:04;6.13;;;1.58;;
66633;SDS011;53546;52.184;5.596;2023-02-24T08:27:19;3.17;;;1.30;;
66633;SDS011;53546;52.184;5.596;2023-02-24T08:29:51;4.72;;;1.35;;
66633;SDS011;53546;52.184;5.596;2023-02-24T08:32:27;2.95;;;1.15;;
66633;SDS011;53546;52.184;5.596;2023-02-24T08:35:11;3.35;;;1.58;;
66633;SDS011;53546;52.184;5.596;2023-02-24T08:37:43;6.40;;;1.17;;
66633;SDS011;53546;52.184;5.596;2023-02-24T08:42:54;3.00;;;1.17;;
66633;SDS011;53546;52.184;5.596;2023-02-24T08:45:23;3.83;;;1.38;;
66633;SDS011;53546;52.184;5.596;2023-02-24T08:47:50;6.90;;;1.48;;
66633;SDS011;53546;52.184;5.596;2023-02-24T08:50:17;5.00;;;1.60;;
66633;SDS011;53546;52.184;5.596;2023-02-24T08:52:45;3.92;;;1.50;;
66633;SDS011;53546;52.184;5.596;2023-02-24T08:55:11;2.58;;;1.30;;
66633;SDS011;53546;52.184;5.596;2023-02-24T08:57:36;3.78;;;1.63;;
66633;SDS011;53546;52.184;5.596;2023-02-24T09:00:02;4.03;;;1.83;;
66633;SDS011;53546;52.184;5.596;2023-02-24T09:02:31;7.13;;;1.90;;
66633;SDS011;53546;52.184;5.596;2023-02-24T09:05:04;6.47;;;1.92;;
66633;SDS011;53546;52.184;5.596;2023-02-24T09:07:38;5.40;;;1.77;;
66633;SDS011;53546;52.184;5.596;2023-02-24T09:10:11;3.92;;;1.50;;
66633;SDS011;53546;52.184;5.596;2023-02-24T09:12:41;1.70;;;1.35;;
66633;SDS011;53546;52.184;5.596;2023-02-24T09:15:08;3.05;;;1.48;;
66633;SDS011;53546;52.184;5.596;2023-02-24T09:17:34;4.05;;;1.65;;
66633;SDS011;53546;52.184;5.596;2023-02-24T09:20:17;6.10;;;1.70;;
66633;SDS011;53546;52.184;5.596;2023-02-24T09:23:03;3.13;;;1.30;;
66633;SDS011;53546;52.184;5.596;2023-02-24T09:25:30;9.60;;;3.13;;
66633;SDS011;53546;52.184;5.596;2023-02-24T09:30:44;12.98;;;2.95;;
66633;SDS011;53546;52.184;5.596;2023-02-24T09:33:28;7.32;;;2.70;;
66633;SDS011;53546;52.184;5.596;2023-02-24T09:44:20;6.70;;;2.05;;
66633;SDS011;53546;52.184;5.596;2023-02-24T09:47:01;7.35;;;2.20;;
66633;SDS011;53546;52.184;5.596;2023-02-24T09:49:54;8.23;;;2.13;;
66633;SDS011;53546;52.184;5.596;2023-02-24T09:52:27;2.20;;;1.70;;
66633;SDS011;53546;52.184;5.596;2023-02-24T09:55:15;4.18;;;1.63;;
66633;SDS011;53546;52.184;5.596;2023-02-24T10:00:55;3.63;;;1.83;;
66633;SDS011;53546;52.184;5.596;2023-02-24T10:03:27;6.40;;;1.98;;
66633;SDS011;53546;52.184;5.596;2023-02-24T10:06:25;4.13;;;1.60;;
66633;SDS011;53546;52.184;5.596;2023-02-24T10:09:02;3.92;;;1.35;;
66633;SDS011;53546;52.184;5.596;2023-02-24T10:11:37;4.07;;;1.70;;
66633;SDS011;53546;52.184;5.596;2023-02-24T10:14:05;5.47;;;1.70;;
66633;SDS011;53546;52.184;5.596;2023-02-24T10:16:32;6.18;;;1.63;;
66633;SDS011;53546;52.184;5.596;2023-02-24T10:19:25;6.80;;;2.00;;
66633;SDS011;53546;52.184;5.596;2023-02-24T10:24:51;5.38;;;1.58;;
66633;SDS011;53546;52.184;5.596;2023-02-24T10:27:32;4.03;;;1.40;;
66633;SDS011;53546;52.184;5.596;2023-02-24T10:35:19;3.70;;;1.33;;
66633;SDS011;53546;52.184;5.596;2023-02-24T10:37:46;4.35;;;1.75;;
66633;SDS011;53546;52.184;5.596;2023-02-24T10:40:13;3.70;;;1.50;;
66633;SDS011;53546;52.184;5.596;2023-02-24T10:42:50;3.92;;;1.63;;
66633;SDS011;53546;52.184;5.596;2023-02-24T10:47:49;2.97;;;1.40;;
66633;SDS011;53546;52.184;5.596;2023-02-24T10:52:47;7.50;;;2.05;;
66633;SDS011;53546;52.184;5.596;2023-02-24T10:58:17;3.00;;;1.55;;
66633;SDS011;53546;52.184;5.596;2023-02-24T11:01:10;2.53;;;1.30;;
66633;SDS011;53546;52.184;5.596;2023-02-24T11:03:55;3.30;;;1.38;;
66633;SDS011;53546;52.184;5.596;2023-02-24T11:06:26;2.42;;;1.63;;
66633;SDS011;53546;52.184;5.596;2023-02-24T11:09:26;3.33;;;1.45;;
66633;SDS011;53546;52.184;5.596;2023-02-24T11:11:51;4.53;;;1.67;;
66633;SDS011;53546;52.184;5.596;2023-02-24T11:14:52;6.60;;;1.63;;
66633;SDS011;53546;52.184;5.596;2023-02-24T11:17:43;4.20;;;1.80;;
66633;SDS011;53546;52.184;5.596;2023-02-24T11:20:40;5.40;;;1.77;;
66633;SDS011;53546;52.184;5.596;2023-02-24T11:23:10;4.50;;;1.40;;
66633;SDS011;53546;52.184;5.596;2023-02-24T11:25:39;6.05;;;1.60;;
66633;SDS011;53546;52.184;5.596;2023-02-24T11:31:11;1.70;;;1.20;;
66633;SDS011;53546;52.184;5.596;2023-02-24T11:34:20;4.75;;;1.10;;
66633;SDS011;53546;52.184;5.596;2023-02-24T11:37:00;2.17;;;1.30;;
66633;SDS011;53546;52.184;5.596;2023-02-24T11:45:35;3.58;;;1.10;;
66633;SDS011;53546;52.184;5.596;2023-02-24T11:48:07;2.97;;;1.20;;
66633;SDS011;53546;52.184;5.596;2023-02-24T11:53:30;3.78;;;1.25;;
66633;SDS011;53546;52.184;5.596;2023-02-24T12:04:36;3.35;;;1.30;;
66633;SDS011;53546;52.184;5.596;2023-02-24T12:09:35;1.33;;;0.95;;
66633;SDS011;53546;52.184;5.596;2023-02-24T12:14:59;3.72;;;1.52;;
66633;SDS011;53546;52.184;5.596;2023-02-24T12:17:40;6.13;;;1.20;;
66633;SDS011;53546;52.184;5.596;2023-02-24T12:20:21;2.97;;;1.02;;
66633;SDS011;53546;52.184;5.596;2023-02-24T12:22:57;1.58;;;1.10;;
66633;SDS011;53546;52.184;5.596;2023-02-24T12:25:30;1.42;;;1.00;;
66633;SDS011;53546;52.184;5.596;2023-02-24T12:33:54;3.83;;;1.20;;
66633;SDS011;53546;52.184;5.596;2023-02-24T12:39:14;2.63;;;1.13;;
66633;SDS011;53546;52.184;5.596;2023-02-24T12:47:11;2.38;;;1.42;;
66633;SDS011;53546;52.184;5.596;2023-02-24T12:55:52;3.60;;;1.45;;
66633;SDS011;53546;52.184;5.596;2023-02-24T12:58:25;4.05;;;1.00;;
66633;SDS011;53546;52.184;5.596;2023-02-24T13:12:14;4.13;;;1.65;;
66633;SDS011;53546;52.184;5.596;2023-02-24T13:14:40;3.78;;;1.55;;
66633;SDS011;53546;52.184;5.596;2023-02-24T13:19:35;4.38;;;1.77;;
66633;SDS011;53546;52.184;5.596;2023-02-24T13:24:36;3.75;;;1.55;;
66633;SDS011;53546;52.184;5.596;2023-02-24T13:27:17;1.52;;;1.20;;
66633;SDS011;53546;52.184;5.596;2023-02-24T13:29:49;5.70;;;2.00;;
66633;SDS011;53546;52.184;5.596;2023-02-24T13:32:33;6.18;;;1.63;;
66633;SDS011;53546;52.184;5.596;2023-02-24T13:37:49;5.22;;;1.80;;
66633;SDS011;53546;52.184;5.596;2023-02-24T13:42:43;8.13;;;2.38;;
66633;SDS011;53546;52.184;5.596;2023-02-24T13:45:19;7.10;;;2.40;;
66633;SDS011;53546;52.184;5.596;2023-02-24T13:50:16;7.03;;;1.80;;
66633;SDS011;53546;52.184;5.596;2023-02-24T14:03:24;6.03;;;1.88;;
66633;SDS011;53546;52.184;5.596;2023-02-24T14:05:51;5.15;;;1.88;;
66633;SDS011;53546;52.184;5.596;2023-02-24T14:08:21;4.47;;;2.05;;
66633;SDS011;53546;52.184;5.596;2023-02-24T14:10:56;4.50;;;1.92;;
66633;SDS011;53546;52.184;5.596;2023-02-24T14:13:25;3.60;;;1.60;;
66633;SDS011;53546;52.184;5.596;2023-02-24T14:15:54;5.20;;;1.60;;
66633;SDS011;53546;52.184;5.596;2023-02-24T14:18:24;3.88;;;1.70;;
66633;SDS011;53546;52.184;5.596;2023-02-24T14:20:51;4.60;;;1.58;;
66633;SDS011;53546;52.184;5.596;2023-02-24T14:23:22;5.28;;;1.80;;
66633;SDS011;53546;52.184;5.596;2023-02-24T14:26:04;4.90;;;1.65;;
66633;SDS011;53546;52.184;5.596;2023-02-24T14:28:35;6.07;;;2.13;;
66633;SDS011;53546;52.184;5.596;2023-02-24T14:31:05;5.55;;;1.95;;
66633;SDS011;53546;52.184;5.596;2023-02-24T14:33:35;4.07;;;1.70;;
66633;SDS011;53546;52.184;5.596;2023-02-24T14:36:03;4.88;;;1.90;;
66633;SDS011;53546;52.184;5.596;2023-02-24T14:40:57;4.07;;;1.30;;
66633;SDS011;53546;52.184;5.596;2023-02-24T14:43:23;4.05;;;1.70;;
66633;SDS011;53546;52.184;5.596;2023-02-24T14:45:49;4.82;;;1.60;;
66633;SDS011;53546;52.184;5.596;2023-02-24T14:48:25;4.70;;;1.77;;
66633;SDS011;53546;52.184;5.596;2023-02-24T14:51:00;2.38;;;1.50;;
66633;SDS011;53546;52.184;5.596;2023-02-24T14:53:29;4.32;;;1.60;;
66633;SDS011;53546;52.184;5.596;2023-02-24T14:55:57;4.88;;;1.75;;
66633;SDS011;53546;52.184;5.596;2023-02-24T14:58:30;3.70;;;1.25;;
66633;SDS011;53546;52.184;5.596;2023-02-24T15:01:00;4.03;;;1.58;;
66633;SDS011;53546;52.184;5.596;2023-02-24T15:03:35;4.47;;;1.52;;
66633;SDS011;53546;52.184;5.596;2023-02-24T15:06:04;3.80;;;1.45;;
66633;SDS011;53546;52.184;5.596;2023-02-24T15:10:59;5.35;;;1.58;;
66633;SDS011;53546;52.184;5.596;2023-02-24T15:13:31;3.92;;;1.67;;
66633;SDS011;53546;52.184;5.596;2023-02-24T15:16:03;2.95;;;1.27;;
66633;SDS011;53546;52.184;5.596;2023-02-24T15:18:55;3.25;;;1.38;;
66633;SDS011;53546;52.184;5.596;2023-02-24T15:21:31;3.17;;;1.17;;
66633;SDS011;53546;52.184;5.596;2023-02-24T15:24:00;2.42;;;1.08;;
66633;SDS011;53546;52.184;5.596;2023-02-24T15:26:32;2.80;;;1.30;;
66633;SDS011;53546;52.184;5.596;2023-02-24T15:29:10;2.97;;;1.33;;
66633;SDS011;53546;52.184;5.596;2023-02-24T15:31:37;2.08;;;0.90;;
66633;SDS011;53546;52.184;5.596;2023-02-24T15:34:03;2.88;;;1.30;;
66633;SDS011;53546;52.184;5.596;2023-02-24T15:36:33;3.30;;;1.15;;
66633;SDS011;53546;52.184;5.596;2023-02-24T15:39:03;5.30;;;1.33;;
66633;SDS011;53546;52.184;5.596;2023-02-24T15:41:41;3.08;;;1.23;;
66633;SDS011;53546;52.184;5.596;2023-02-24T15:46:54;1.95;;;0.98;;
66633;SDS011;53546;52.184;5.596;2023-02-24T15:49:21;2.47;;;1.13;;
66633;SDS011;53546;52.184;5.596;2023-02-24T15:51:47;2.40;;;1.40;;
66633;SDS011;53546;52.184;5.596;2023-02-24T15:54:15;2.50;;;1.42;;
66633;SDS011;53546;52.184;5.596;2023-02-24T15:56:44;2.72;;;1.10;;
66633;SDS011;53546;52.184;5.596;2023-02-24T15:59:14;1.77;;;0.80;;
66633;SDS011;53546;52.184;5.596;2023-02-24T16:01:40;2.10;;;1.00;;
66633;SDS011;53546;52.184;5.596;2023-02-24T16:04:06;3.00;;;1.08;;
66633;SDS011;53546;52.184;5.596;2023-02-24T16:06:33;2.95;;;1.10;;
66633;SDS011;53546;52.184;5.596;2023-02-24T16:09:05;1.35;;;0.90;;
66633;SDS011;53546;52.184;5.596;2023-02-24T16:11:41;2.20;;;1.02;;
66633;SDS011;53546;52.184;5.596;2023-02-24T16:14:08;1.92;;;1.00;;
66633;SDS011;53546;52.184;5.596;2023-02-24T16:16:38;1.25;;;0.80;;
66633;SDS011;53546;52.184;5.596;2023-02-24T16:19:03;2.67;;;1.00;;
66633;SDS011;53546;52.184;5.596;2023-02-24T16:21:29;2.72;;;1.10;;
66633;SDS011;53546;52.184;5.596;2023-02-24T16:23:54;2.65;;;1.08;;
66633;SDS011;53546;52.184;5.596;2023-02-24T16:26:20;1.92;;;0.80;;
66633;SDS011;53546;52.184;5.596;2023-02-24T16:28:56;2.25;;;1.00;;
66633;SDS011;53546;52.184;5.596;2023-02-24T16:31:22;3.90;;;1.00;;
66633;SDS011;53546;52.184;5.596;2023-02-24T16:33:49;2.42;;;0.88;;
66633;SDS011;53546;52.184;5.596;2023-02-24T16:36:14;1.77;;;0.98;;
66633;SDS011;53546;52.184;5.596;2023-02-24T16:38:41;1.95;;;0.90;;
66633;SDS011;53546;52.184;5.596;2023-02-24T16:41:06;2.20;;;0.93;;
66633;SDS011;53546;52.184;5.596;2023-02-24T16:43:33;1.27;;;0.82;;
66633;SDS011;53546;52.184;5.596;2023-02-24T16:46:00;2.13;;;0.90;;
66633;SDS011;53546;52.184;5.596;2023-02-24T16:48:27;2.13;;;0.90;;
66633;SDS011;53546;52.184;5.596;2023-02-24T16:50:55;1.45;;;0.80;;
66633;SDS011;53546;52.184;5.596;2023-02-24T16:53:21;3.63;;;0.95;;
66633;SDS011;53546;52.184;5.596;2023-02-24T16:55:47;2.50;;;0.77;;
66633;SDS011;53546;52.184;5.596;2023-02-24T16:58:13;3.45;;;1.17;;
66633;SDS011;53546;52.184;5.596;2023-02-24T17:00:40;1.75;;;0.80;;
66633;SDS011;53546;52.184;5.596;2023-02-24T17:03:11;2.30;;;0.80;;
66633;SDS011;53546;52.184;5.596;2023-02-24T17:05:47;2.53;;;1.00;;
66633;SDS011;53546;52.184;5.596;2023-02-24T17:08:13;3.85;;;0.90;;
66633;SDS011;53546;52.184;5.596;2023-02-24T17:10:39;3.80;;;1.02;;
66633;SDS011;53546;52.184;5.596;2023-02-24T17:13:06;1.30;;;0.70;;
66633;SDS011;53546;52.184;5.596;2023-02-24T17:15:34;1.77;;;1.05;;
66633;SDS011;53546;52.184;5.596;2023-02-24T17:17:59;1.20;;;0.82;;
66633;SDS011;53546;52.184;5.596;2023-02-24T17:20:24;1.77;;;0.95;;
66633;SDS011;53546;52.184;5.596;2023-02-24T17:22:50;2.20;;;0.80;;
66633;SDS011;53546;52.184;5.596;2023-02-24T17:25:16;1.30;;;0.80;;
66633;SDS011;53546;52.184;5.596;2023-02-24T17:27:43;2.03;;;1.00;;
66633;SDS011;53546;52.184;5.596;2023-02-24T17:30:16;1.90;;;0.90;;
66633;SDS011;53546;52.184;5.596;2023-02-24T17:32:44;1.50;;;1.10;;
66633;SDS011;53546;52.184;5.596;2023-02-24T17:35:09;3.25;;;0.98;;
66633;SDS011;53546;52.184;5.596;2023-02-24T17:37:35;1.38;;;0.82;;
66633;SDS011;53546;52.184;5.596;2023-02-24T17:40:00;2.80;;;1.10;;
66633;SDS011;53546;52.184;5.596;2023-02-24T17:42:26;1.52;;;0.88;;
66633;SDS011;53546;52.184;5.596;2023-02-24T17:44:51;2.10;;;1.02;;
66633;SDS011;53546;52.184;5.596;2023-02-24T17:47:17;4.85;;;1.42;;
66633;SDS011;53546;52.184;5.596;2023-02-24T17:49:42;1.73;;;1.05;;
66633;SDS011;53546;52.184;5.596;2023-02-24T17:52:07;3.13;;;0.88;;
66633;SDS011;53546;52.184;5.596;2023-02-24T17:54:33;2.85;;;1.15;;
66633;SDS011;53546;52.184;5.596;2023-02-24T17:56:58;3.47;;;1.30;;
66633;SDS011;53546;52.184;5.596;2023-02-24T17:59:24;1.95;;;1.00;;
66633;SDS011;53546;52.184;5.596;2023-02-24T18:01:49;2.33;;;1.15;;